sensor_id;sensor_type;location;lat;lon;timestamp;pressure;altitude;pressure_sealevel;temperature;humidity
21520;BME280;10921;53.614;9.882;2023-02-21T00:01:19;101088.25;;;11.13;100.00
21520;BME280;10921;53.614;9.882;2023-02-21T00:04:04;101095.41;;;11.12;100.00
21520;BME280;10921;53.614;9.882;2023-02-21T00:06:48;101082.91;;;11.13;100.00
21520;BME280;10921;53.614;9.882;2023-02-21T00:09:33;101063.34;;;10.93;100.00
21520;BME280;10921;53.614;9.882;2023-02-21T00:12:18;101061.78;;;10.90;100.00
21520;BME280;10921;53.614;9.882;2023-02-21T00:15:03;101094.97;;;11.07;100.00
21520;BME280;10921;53.614;9.882;2023-02-21T00:17:48;101085.13;;;10.98;100.00
21520;BME280;10921;53.614;9.882;2023-02-21T00:20:33;101055.59;;;10.80;100.00
21520;BME280;10921;53.614;9.882;2023-02-21T00:23:18;101100.44;;;11.06;100.00
21520;BME280;10921;53.614;9.882;2023-02-21T00:26:03;101100.72;;;11.03;100.00
21520;BME280;10921;53.614;9.882;2023-02-21T00:28:49;101108.88;;;11.01;100.00
21520;BME280;10921;53.614;9.882;2023-02-21T00:31:34;101106.38;;;11.00;100.00
21520;BME280;10921;53.614;9.882;2023-02-21T00:34:18;101097.34;;;11.01;100.00
21520;BME280;10921;53.614;9.882;2023-02-21T00:37:03;101096.09;;;10.95;100.00
21520;BME280;10921;53.614;9.882;2023-02-21T00:39:48;101113.38;;;11.01;100.00
21520;BME280;10921;53.614;9.882;2023-02-21T00:42:33;101107.19;;;11.00;100.00
21520;BME280;10921;53.614;9.882;2023-02-21T00:45:18;101104.50;;;10.90;100.00
21520;BME280;10921;53.614;9.882;2023-02-21T00:48:03;101066.22;;;10.71;100.00
21520;BME280;10921;53.614;9.882;2023-02-21T00:50:48;101127.88;;;10.98;100.00
21520;BME280;10921;53.614;9.882;2023-02-21T00:53:33;101125.47;;;10.95;100.00
21520;BME280;10921;53.614;9.882;2023-02-21T00:56:18;101118.44;;;10.94;100.00
21520;BME280;10921;53.614;9.882;2023-02-21T00:59:03;101114.06;;;10.83;100.00
21520;BME280;10921;53.614;9.882;2023-02-21T01:01:48;101129.38;;;10.91;100.00
21520;BME280;10921;53.614;9.882;2023-02-21T01:04:33;101113.22;;;10.92;100.00
21520;BME280;10921;53.614;9.882;2023-02-21T01:07:18;101114.91;;;10.93;100.00
21520;BME280;10921;53.614;9.882;2023-02-21T01:10:03;101075.78;;;10.64;100.00
21520;BME280;10921;53.614;9.882;2023-02-21T01:12:48;101099.69;;;10.75;100.00
21520;BME280;10921;53.614;9.882;2023-02-21T01:15:33;101117.84;;;10.90;100.00
21520;BME280;10921;53.614;9.882;2023-02-21T01:18:19;101117.72;;;10.92;100.00
21520;BME280;10921;53.614;9.882;2023-02-21T01:21:04;101126.56;;;10.83;100.00
21520;BME280;10921;53.614;9.882;2023-02-21T01:23:49;101124.16;;;10.89;100.00
21520;BME280;10921;53.614;9.882;2023-02-21T01:26:34;101090.13;;;10.72;100.00
21520;BME280;10921;53.614;9.882;2023-02-21T01:29:19;101095.63;;;10.80;100.00
21520;BME280;10921;53.614;9.882;2023-02-21T01:32:04;101106.06;;;10.83;100.00
21520;BME280;10921;53.614;9.882;2023-02-21T01:34:49;101067.59;;;10.55;100.00
21520;BME280;10921;53.614;9.882;2023-02-21T01:37:34;101083.78;;;10.64;100.00
21520;BME280;10921;53.614;9.882;2023-02-21T01:40:19;101125.41;;;10.85;100.00
21520;BME280;10921;53.614;9.882;2023-02-21T01:43:21;101112.50;;;10.81;100.00
21520;BME280;10921;53.614;9.882;2023-02-21T01:46:12;101125.41;;;10.85;100.00
21520;BME280;10921;53.614;9.882;2023-02-21T01:48:58;101123.91;;;10.92;100.00
21520;BME280;10921;53.614;9.882;2023-02-21T01:51:44;101110.81;;;10.80;100.00
21520;BME280;10921;53.614;9.882;2023-02-21T01:54:33;101062.81;;;10.49;100.00
21520;BME280;10921;53.614;9.882;2023-02-21T01:57:19;101117.97;;;10.79;100.00
21520;BME280;10921;53.614;9.882;2023-02-21T02:00:08;101121.34;;;10.81;100.00
21520;BME280;10921;53.614;9.882;2023-02-21T02:03:06;101118.56;;;10.83;100.00
21520;BME280;10921;53.614;9.882;2023-02-21T02:06:01;101122.47;;;10.79;100.00
21520;BME280;10921;53.614;9.882;2023-02-21T02:08:46;101115.31;;;10.79;100.00
21520;BME280;10921;53.614;9.882;2023-02-21T02:24:04;101119.53;;;10.82;100.00
21520;BME280;10921;53.614;9.882;2023-02-21T02:35:01;101127.41;;;10.83;100.00
21520;BME280;10921;53.614;9.882;2023-02-21T02:37:52;101134.56;;;10.83;100.00
21520;BME280;10921;53.614;9.882;2023-02-21T02:43:20;101137.38;;;10.81;100.00
21520;BME280;10921;53.614;9.882;2023-02-21T02:45:55;101133.00;;;10.80;100.00
21520;BME280;10921;53.614;9.882;2023-02-21T02:48:36;101115.41;;;10.68;100.00
21520;BME280;10921;53.614;9.882;2023-02-21T02:51:10;101102.72;;;10.61;100.00
21520;BME280;10921;53.614;9.882;2023-02-21T02:53:38;101126.38;;;10.75;100.00
21520;BME280;10921;53.614;9.882;2023-02-21T02:56:07;101124.28;;;10.78;100.00
21520;BME280;10921;53.614;9.882;2023-02-21T03:09:33;101135.53;;;10.82;100.00
21520;BME280;10921;53.614;9.882;2023-02-21T03:15:00;101142.84;;;10.80;100.00
21520;BME280;10921;53.614;9.882;2023-02-21T03:17:30;101141.28;;;10.77;100.00
21520;BME280;10921;53.614;9.882;2023-02-21T03:20:02;101142.25;;;10.76;100.00
21520;BME280;10921;53.614;9.882;2023-02-21T03:22:30;101143.81;;;10.79;100.00
21520;BME280;10921;53.614;9.882;2023-02-21T03:24:59;101140.31;;;10.78;100.00
21520;BME280;10921;53.614;9.882;2023-02-21T03:27:29;101146.50;;;10.79;100.00
21520;BME280;10921;53.614;9.882;2023-02-21T03:29:59;101134.00;;;10.79;100.00
21520;BME280;10921;53.614;9.882;2023-02-21T03:32:35;101147.47;;;10.78;100.00
21520;BME280;10921;53.614;9.882;2023-02-21T03:35:03;101062.34;;;10.35;100.00
21520;BME280;10921;53.614;9.882;2023-02-21T03:37:39;101122.25;;;10.61;100.00
21520;BME280;10921;53.614;9.882;2023-02-21T03:40:16;101142.53;;;10.73;100.00
21520;BME280;10921;53.614;9.882;2023-02-21T03:42:43;101139.13;;;10.71;100.00
21520;BME280;10921;53.614;9.882;2023-02-21T03:45:10;101141.13;;;10.69;100.00
21520;BME280;10921;53.614;9.882;2023-02-21T03:47:37;101122.09;;;10.53;100.00
21520;BME280;10921;53.614;9.882;2023-02-21T03:50:03;101154.59;;;10.68;100.00
21520;BME280;10921;53.614;9.882;2023-02-21T03:52:30;101154.59;;;10.68;100.00
21520;BME280;10921;53.614;9.882;2023-02-21T03:54:56;101142.38;;;10.65;100.00
21520;BME280;10921;53.614;9.882;2023-02-21T03:57:23;101063.19;;;10.14;100.00
21520;BME280;10921;53.614;9.882;2023-02-21T03:59:49;101104.59;;;10.39;100.00
21520;BME280;10921;53.614;9.882;2023-02-21T04:02:16;101146.59;;;10.68;100.00
21520;BME280;10921;53.614;9.882;2023-02-21T04:04:44;101151.94;;;10.68;100.00
21520;BME280;10921;53.614;9.882;2023-02-21T04:07:18;101150.63;;;10.62;100.00
21520;BME280;10921;53.614;9.882;2023-02-21T04:09:45;101134.59;;;10.52;100.00
21520;BME280;10921;53.614;9.882;2023-02-21T04:12:11;101154.88;;;10.65;100.00
21520;BME280;10921;53.614;9.882;2023-02-21T04:14:38;101151.63;;;10.61;100.00
21520;BME280;10921;53.614;9.882;2023-02-21T04:17:04;101110.53;;;10.43;100.00
21520;BME280;10921;53.614;9.882;2023-02-21T04:19:31;101158.91;;;10.59;100.00
21520;BME280;10921;53.614;9.882;2023-02-21T04:21:57;101146.53;;;10.58;100.00
21520;BME280;10921;53.614;9.882;2023-02-21T04:24:24;101153.16;;;10.54;99.70
21520;BME280;10921;53.614;9.882;2023-02-21T04:26:51;101171.25;;;10.50;99.59
21520;BME280;10921;53.614;9.882;2023-02-21T04:29:17;101164.84;;;10.42;99.40
21520;BME280;10921;53.614;9.882;2023-02-21T04:31:44;101162.06;;;10.43;98.77
21520;BME280;10921;53.614;9.882;2023-02-21T04:34:11;101153.03;;;10.35;98.47
21520;BME280;10921;53.614;9.882;2023-02-21T04:36:38;101138.13;;;10.11;97.86
21520;BME280;10921;53.614;9.882;2023-02-21T04:39:06;101142.47;;;10.12;97.28
21520;BME280;10921;53.614;9.882;2023-02-21T04:41:32;101158.84;;;10.19;97.07
21520;BME280;10921;53.614;9.882;2023-02-21T04:43:59;101152.31;;;10.12;96.58
21520;BME280;10921;53.614;9.882;2023-02-21T04:46:26;101099.00;;;9.70;96.51
21520;BME280;10921;53.614;9.882;2023-02-21T04:48:52;101151.66;;;9.99;96.38
21520;BME280;10921;53.614;9.882;2023-02-21T04:51:22;101161.84;;;9.94;96.60
21520;BME280;10921;53.614;9.882;2023-02-21T04:53:49;101153.09;;;9.82;96.70
21520;BME280;10921;53.614;9.882;2023-02-21T04:56:21;101105.28;;;9.48;97.09
21520;BME280;10921;53.614;9.882;2023-02-21T04:58:48;101162.06;;;9.81;97.03
21520;BME280;10921;53.614;9.882;2023-02-21T05:01:15;101153.66;;;9.65;97.37
21520;BME280;10921;53.614;9.882;2023-02-21T05:03:43;101151.94;;;9.64;97.52
21520;BME280;10921;53.614;9.882;2023-02-21T05:06:10;101153.41;;;9.68;97.79
21520;BME280;10921;53.614;9.882;2023-02-21T05:08:36;101153.41;;;9.68;97.88
21520;BME280;10921;53.614;9.882;2023-02-21T05:11:03;101157.16;;;9.65;98.54
21520;BME280;10921;53.614;9.882;2023-02-21T05:13:29;101170.34;;;9.67;98.52
21520;BME280;10921;53.614;9.882;2023-02-21T05:15:56;101163.09;;;9.69;98.44
21520;BME280;10921;53.614;9.882;2023-02-21T05:18:22;101127.56;;;9.47;98.71
21520;BME280;10921;53.614;9.882;2023-02-21T05:20:54;101162.88;;;9.61;98.88
21520;BME280;10921;53.614;9.882;2023-02-21T05:23:21;101170.22;;;9.68;98.94
21520;BME280;10921;53.614;9.882;2023-02-21T05:28:30;101161.91;;;9.62;99.20
21520;BME280;10921;53.614;9.882;2023-02-21T05:30:57;101129.78;;;9.42;99.21
21520;BME280;10921;53.614;9.882;2023-02-21T05:33:38;101169.50;;;9.66;99.52
21520;BME280;10921;53.614;9.882;2023-02-21T05:36:05;101178.34;;;9.67;99.22
21520;BME280;10921;53.614;9.882;2023-02-21T05:38:32;101164.97;;;9.57;99.27
21520;BME280;10921;53.614;9.882;2023-02-21T05:40:58;101141.34;;;9.52;99.33
21520;BME280;10921;53.614;9.882;2023-02-21T05:43:25;101172.16;;;9.66;99.11
21520;BME280;10921;53.614;9.882;2023-02-21T05:45:54;101179.31;;;9.66;99.09
21520;BME280;10921;53.614;9.882;2023-02-21T05:48:22;101163.13;;;9.58;99.19
21520;BME280;10921;53.614;9.882;2023-02-21T05:50:49;101165.09;;;9.56;99.07
21520;BME280;10921;53.614;9.882;2023-02-21T05:53:15;101181.13;;;9.65;98.69
21520;BME280;10921;53.614;9.882;2023-02-21T05:55:42;101168.97;;;9.51;98.52
21520;BME280;10921;53.614;9.882;2023-02-21T05:58:08;101192.06;;;9.62;98.79
21520;BME280;10921;53.614;9.882;2023-02-21T06:00:34;101165.84;;;9.46;98.73
21520;BME280;10921;53.614;9.882;2023-02-21T06:03:01;101177.94;;;9.50;98.47
21520;BME280;10921;53.614;9.882;2023-02-21T06:05:30;101194.13;;;9.59;98.50
21520;BME280;10921;53.614;9.882;2023-02-21T06:07:58;101207.47;;;9.59;98.49
21520;BME280;10921;53.614;9.882;2023-02-21T06:10:24;101212.78;;;9.59;98.40
21520;BME280;10921;53.614;9.882;2023-02-21T06:12:51;101186.31;;;9.46;98.44
21520;BME280;10921;53.614;9.882;2023-02-21T06:15:17;101203.72;;;9.50;98.19
21520;BME280;10921;53.614;9.882;2023-02-21T06:17:43;101206.25;;;9.51;98.44
21520;BME280;10921;53.614;9.882;2023-02-21T06:20:13;101206.84;;;9.55;98.37
21520;BME280;10921;53.614;9.882;2023-02-21T06:22:42;101203.84;;;9.48;98.23
21520;BME280;10921;53.614;9.882;2023-02-21T06:25:09;101214.38;;;9.50;98.45
21520;BME280;10921;53.614;9.882;2023-02-21T06:27:36;101232.78;;;9.53;98.38
21520;BME280;10921;53.614;9.882;2023-02-21T06:30:04;101228.41;;;9.52;98.13
21520;BME280;10921;53.614;9.882;2023-02-21T06:32:31;101229.50;;;9.49;98.23
21520;BME280;10921;53.614;9.882;2023-02-21T06:34:57;101233.88;;;9.50;98.47
21520;BME280;10921;53.614;9.882;2023-02-21T06:37:24;101237.78;;;9.46;98.11
21520;BME280;10921;53.614;9.882;2023-02-21T06:39:50;101241.75;;;9.52;98.34
21520;BME280;10921;53.614;9.882;2023-02-21T06:42:17;101239.06;;;9.52;98.49
21520;BME280;10921;53.614;9.882;2023-02-21T06:44:45;101243.56;;;9.51;98.49
21520;BME280;10921;53.614;9.882;2023-02-21T06:47:12;101242.72;;;9.51;98.29
21520;BME280;10921;53.614;9.882;2023-02-21T06:49:39;101225.78;;;9.41;98.25
21520;BME280;10921;53.614;9.882;2023-02-21T06:52:06;101233.03;;;9.50;98.34
21520;BME280;10921;53.614;9.882;2023-02-21T06:54:32;101230.75;;;9.45;98.42
21520;BME280;10921;53.614;9.882;2023-02-21T06:56:59;101241.84;;;9.50;98.38
21520;BME280;10921;53.614;9.882;2023-02-21T06:59:27;101239.06;;;9.52;98.45
21520;BME280;10921;53.614;9.882;2023-02-21T07:01:55;101240.16;;;9.49;98.49
21520;BME280;10921;53.614;9.882;2023-02-21T07:04:22;101253.25;;;9.52;98.33
21520;BME280;10921;53.614;9.882;2023-02-21T07:06:50;101238.94;;;9.53;98.27
21520;BME280;10921;53.614;9.882;2023-02-21T07:09:16;101234.00;;;9.49;98.39
21520;BME280;10921;53.614;9.882;2023-02-21T07:11:43;101234.72;;;9.51;98.53
21520;BME280;10921;53.614;9.882;2023-02-21T07:14:12;101254.94;;;9.53;98.49
21520;BME280;10921;53.614;9.882;2023-02-21T07:16:38;101241.63;;;9.53;98.61
21520;BME280;10921;53.614;9.882;2023-02-21T07:19:05;101251.19;;;9.56;98.69
21520;BME280;10921;53.614;9.882;2023-02-21T07:21:31;101255.28;;;9.60;98.40
21520;BME280;10921;53.614;9.882;2023-02-21T07:23:58;101256.25;;;9.59;98.29
21520;BME280;10921;53.614;9.882;2023-02-21T07:26:24;101245.25;;;9.52;98.41
21520;BME280;10921;53.614;9.882;2023-02-21T07:28:51;101242.09;;;9.47;98.48
21520;BME280;10921;53.614;9.882;2023-02-21T07:31:17;101268.09;;;9.66;98.77
21520;BME280;10921;53.614;9.882;2023-02-21T07:33:46;101270.41;;;9.71;98.74
21520;BME280;10921;53.614;9.882;2023-02-21T07:36:12;101279.13;;;9.73;98.71
21520;BME280;10921;53.614;9.882;2023-02-21T07:38:39;101242.81;;;9.61;98.54
21520;BME280;10921;53.614;9.882;2023-02-21T07:41:05;101264.81;;;9.74;98.67
21520;BME280;10921;53.614;9.882;2023-02-21T07:43:32;101260.59;;;9.71;98.85
21520;BME280;10921;53.614;9.882;2023-02-21T07:45:58;101269.63;;;9.80;99.01
21520;BME280;10921;53.614;9.882;2023-02-21T07:48:25;101232.28;;;9.59;99.06
21520;BME280;10921;53.614;9.882;2023-02-21T07:50:52;101278.59;;;9.90;98.95
21520;BME280;10921;53.614;9.882;2023-02-21T07:53:18;101274.53;;;9.96;98.34
21520;BME280;10921;53.614;9.882;2023-02-21T07:55:45;101286.78;;;9.98;98.42
21520;BME280;10921;53.614;9.882;2023-02-21T07:58:11;101255.13;;;9.73;98.15
21520;BME280;10921;53.614;9.882;2023-02-21T08:00:38;101247.63;;;9.67;98.27
21520;BME280;10921;53.614;9.882;2023-02-21T08:03:06;101303.25;;;10.03;98.50
21520;BME280;10921;53.614;9.882;2023-02-21T08:05:32;101303.13;;;10.05;98.58
21520;BME280;10921;53.614;9.882;2023-02-21T08:07:59;101280.28;;;9.91;98.99
21520;BME280;10921;53.614;9.882;2023-02-21T08:10:26;101313.16;;;10.12;99.29
21520;BME280;10921;53.614;9.882;2023-02-21T08:12:53;101304.91;;;10.15;99.18
21520;BME280;10921;53.614;9.882;2023-02-21T08:15:19;101288.47;;;9.99;99.32
21520;BME280;10921;53.614;9.882;2023-02-21T08:17:49;101258.56;;;9.96;99.82
21520;BME280;10921;53.614;9.882;2023-02-21T08:20:16;101311.47;;;10.43;100.00
21520;BME280;10921;53.614;9.882;2023-02-21T08:22:43;101301.69;;;10.33;99.46
21520;BME280;10921;53.614;9.882;2023-02-21T08:25:11;101311.34;;;10.45;99.52
21520;BME280;10921;53.614;9.882;2023-02-21T08:27:42;101305.88;;;10.46;99.57
21520;BME280;10921;53.614;9.882;2023-02-21T08:30:10;101301.84;;;10.52;98.69
21520;BME280;10921;53.614;9.882;2023-02-21T08:32:37;101314.66;;;10.58;97.42
21520;BME280;10921;53.614;9.882;2023-02-21T08:35:04;101322.53;;;10.60;97.24
21520;BME280;10921;53.614;9.882;2023-02-21T08:37:34;101324.09;;;10.62;96.74
21520;BME280;10921;53.614;9.882;2023-02-21T08:40:03;101304.22;;;10.55;96.25
21520;BME280;10921;53.614;9.882;2023-02-21T08:42:29;101326.25;;;10.68;96.15
21520;BME280;10921;53.614;9.882;2023-02-21T08:44:56;101289.91;;;10.56;96.37
21520;BME280;10921;53.614;9.882;2023-02-21T08:47:23;101323.78;;;10.76;95.87
21520;BME280;10921;53.614;9.882;2023-02-21T08:49:49;101320.16;;;10.87;95.83
21520;BME280;10921;53.614;9.882;2023-02-21T08:52:17;101329.34;;;10.94;95.36
21520;BME280;10921;53.614;9.882;2023-02-21T08:54:44;101325.03;;;11.03;94.88
21520;BME280;10921;53.614;9.882;2023-02-21T08:57:11;101327.66;;;11.14;94.05
21520;BME280;10921;53.614;9.882;2023-02-21T08:59:42;101330.47;;;11.22;94.33
21520;BME280;10921;53.614;9.882;2023-02-21T09:02:15;101336.69;;;11.32;93.47
21520;BME280;10921;53.614;9.882;2023-02-21T09:04:42;101341.66;;;11.37;92.85
21520;BME280;10921;53.614;9.882;2023-02-21T09:07:11;101348.28;;;11.42;91.86
21520;BME280;10921;53.614;9.882;2023-02-21T09:09:38;101354.78;;;11.49;91.46
21520;BME280;10921;53.614;9.882;2023-02-21T09:12:05;101312.66;;;11.32;90.42
21520;BME280;10921;53.614;9.882;2023-02-21T09:14:35;101347.16;;;11.75;92.11
21520;BME280;10921;53.614;9.882;2023-02-21T09:17:03;101349.50;;;11.69;89.57
21520;BME280;10921;53.614;9.882;2023-02-21T09:19:30;101312.03;;;11.49;89.60
21520;BME280;10921;53.614;9.882;2023-02-21T09:21:56;101316.97;;;11.63;90.17
21520;BME280;10921;53.614;9.882;2023-02-21T09:24:26;101345.63;;;11.82;88.40
21520;BME280;10921;53.614;9.882;2023-02-21T09:26:54;101361.28;;;11.87;87.19
21520;BME280;10921;53.614;9.882;2023-02-21T09:29:25;101354.22;;;11.86;86.36
21520;BME280;10921;53.614;9.882;2023-02-21T09:31:57;101347.59;;;11.80;85.38
21520;BME280;10921;53.614;9.882;2023-02-21T09:34:23;101375.50;;;11.87;85.78
21520;BME280;10921;53.614;9.882;2023-02-21T09:36:50;101349.59;;;11.88;85.76
21520;BME280;10921;53.614;9.882;2023-02-21T09:39:17;101371.13;;;11.96;85.46
21520;BME280;10921;53.614;9.882;2023-02-21T09:41:44;101351.16;;;11.90;85.18
21520;BME280;10921;53.614;9.882;2023-02-21T09:44:15;101374.97;;;12.03;86.80
21520;BME280;10921;53.614;9.882;2023-02-21T09:46:45;101322.94;;;11.77;87.03
21520;BME280;10921;53.614;9.882;2023-02-21T09:49:53;101378.22;;;12.16;85.33
21520;BME280;10921;53.614;9.882;2023-02-21T09:52:26;101376.66;;;12.23;84.22
21520;BME280;10921;53.614;9.882;2023-02-21T09:54:57;101365.25;;;12.12;80.68
21520;BME280;10921;53.614;9.882;2023-02-21T09:57:25;101389.22;;;12.32;81.47
21520;BME280;10921;53.614;9.882;2023-02-21T09:59:52;101379.63;;;12.40;82.12
21520;BME280;10921;53.614;9.882;2023-02-21T10:02:23;101389.06;;;12.44;81.24
21520;BME280;10921;53.614;9.882;2023-02-21T10:07:59;101389.22;;;12.61;80.28
21520;BME280;10921;53.614;9.882;2023-02-21T10:10:42;101385.44;;;12.64;80.28
21520;BME280;10921;53.614;9.882;2023-02-21T10:13:17;101387.97;;;12.65;78.38
21520;BME280;10921;53.614;9.882;2023-02-21T10:16:11;101400.06;;;12.69;79.07
21520;BME280;10921;53.614;9.882;2023-02-21T10:18:50;101389.50;;;12.78;79.59
21520;BME280;10921;53.614;9.882;2023-02-21T10:21:34;101381.19;;;12.81;78.84
21520;BME280;10921;53.614;9.882;2023-02-21T10:24:11;101345.13;;;12.65;76.32
21520;BME280;10921;53.614;9.882;2023-02-21T10:26:39;101392.84;;;12.99;75.01
21520;BME280;10921;53.614;9.882;2023-02-21T10:29:21;101398.06;;;13.10;75.61
21520;BME280;10921;53.614;9.882;2023-02-21T10:31:53;101397.91;;;13.21;75.32
21520;BME280;10921;53.614;9.882;2023-02-21T10:34:28;101400.16;;;13.26;72.41
21520;BME280;10921;53.614;9.882;2023-02-21T10:36:57;101406.88;;;13.40;69.95
21520;BME280;10921;53.614;9.882;2023-02-21T10:39:34;101411.78;;;13.54;70.73
21520;BME280;10921;53.614;9.882;2023-02-21T10:42:02;101401.16;;;13.62;69.51
21520;BME280;10921;53.614;9.882;2023-02-21T10:44:31;101406.91;;;13.67;68.70
21520;BME280;10921;53.614;9.882;2023-02-21T10:47:06;101408.19;;;13.72;68.54
21520;BME280;10921;53.614;9.882;2023-02-21T10:49:45;101410.25;;;13.79;68.37
21520;BME280;10921;53.614;9.882;2023-02-21T10:52:16;101415.72;;;13.87;67.51
21520;BME280;10921;53.614;9.882;2023-02-21T10:57:57;101415.53;;;13.98;66.84
21520;BME280;10921;53.614;9.882;2023-02-21T11:00:38;101416.06;;;14.01;67.59
21520;BME280;10921;53.614;9.882;2023-02-21T11:03:22;101406.69;;;14.05;67.50
21520;BME280;10921;53.614;9.882;2023-02-21T11:05:55;101409.78;;;14.11;66.89
21520;BME280;10921;53.614;9.882;2023-02-21T11:08:37;101412.94;;;14.24;66.99
21520;BME280;10921;53.614;9.882;2023-02-21T11:11:04;101423.00;;;14.22;63.94
21520;BME280;10921;53.614;9.882;2023-02-21T11:13:32;101412.03;;;14.15;63.67
21520;BME280;10921;53.614;9.882;2023-02-21T11:16:15;101420.00;;;14.25;64.44
21520;BME280;10921;53.614;9.882;2023-02-21T11:18:42;101415.78;;;14.22;63.91
21520;BME280;10921;53.614;9.882;2023-02-21T11:21:15;101400.66;;;14.21;64.59
21520;BME280;10921;53.614;9.882;2023-02-21T11:24:06;101402.03;;;14.35;65.06
21520;BME280;10921;53.614;9.882;2023-02-21T11:26:45;101407.69;;;14.32;61.95
21520;BME280;10921;53.614;9.882;2023-02-21T11:29:16;101400.19;;;14.35;62.53
21520;BME280;10921;53.614;9.882;2023-02-21T11:31:44;101402.53;;;14.38;62.80
21520;BME280;10921;53.614;9.882;2023-02-21T11:34:13;101414.09;;;14.49;63.13
21520;BME280;10921;53.614;9.882;2023-02-21T11:36:44;101404.06;;;14.51;63.64
21520;BME280;10921;53.614;9.882;2023-02-21T11:39:24;101400.59;;;14.58;63.19
21520;BME280;10921;53.614;9.882;2023-02-21T11:42:02;101388.94;;;14.50;63.30
21520;BME280;10921;53.614;9.882;2023-02-21T11:44:38;101399.88;;;14.56;63.92
21520;BME280;10921;53.614;9.882;2023-02-21T11:49:46;101404.56;;;14.54;64.95
21520;BME280;10921;53.614;9.882;2023-02-21T11:52:27;101391.22;;;14.45;65.81
21520;BME280;10921;53.614;9.882;2023-02-21T11:54:55;101409.31;;;14.42;65.42
21520;BME280;10921;53.614;9.882;2023-02-21T12:00:29;101405.69;;;14.34;67.13
21520;BME280;10921;53.614;9.882;2023-02-21T12:08:35;101395.63;;;14.18;67.74
21520;BME280;10921;53.614;9.882;2023-02-21T12:24:58;101401.75;;;13.56;69.72
21520;BME280;10921;53.614;9.882;2023-02-21T12:30:30;101374.91;;;13.19;70.75
21520;BME280;10921;53.614;9.882;2023-02-21T12:41:50;101407.63;;;13.22;73.95
21520;BME280;10921;53.614;9.882;2023-02-21T12:44:22;101406.38;;;13.17;73.23
21520;BME280;10921;53.614;9.882;2023-02-21T12:46:57;101407.66;;;13.13;73.54
21520;BME280;10921;53.614;9.882;2023-02-21T12:49:31;101401.00;;;13.07;73.77
21520;BME280;10921;53.614;9.882;2023-02-21T12:52:12;101385.25;;;12.94;73.99
21520;BME280;10921;53.614;9.882;2023-02-21T12:57:51;101402.75;;;12.98;74.59
21520;BME280;10921;53.614;9.882;2023-02-21T13:00:23;101396.81;;;12.85;74.00
21520;BME280;10921;53.614;9.882;2023-02-21T13:05:54;101352.75;;;12.51;74.87
21520;BME280;10921;53.614;9.882;2023-02-21T13:09:14;101401.47;;;12.74;74.78
21520;BME280;10921;53.614;9.882;2023-02-21T13:11:34;101404.59;;;12.79;74.96
21520;BME280;10921;53.614;9.882;2023-02-21T13:14:08;101404.00;;;12.75;74.77
21520;BME280;10921;53.614;9.882;2023-02-21T13:16:35;101403.03;;;12.66;74.58
21520;BME280;10921;53.614;9.882;2023-02-21T13:19:06;101400.66;;;12.63;75.02
21520;BME280;10921;53.614;9.882;2023-02-21T13:27:24;101403.44;;;12.72;75.10
21520;BME280;10921;53.614;9.882;2023-02-21T13:32:51;101343.88;;;12.50;75.34
21520;BME280;10921;53.614;9.882;2023-02-21T13:35:27;101410.47;;;12.92;75.46
21520;BME280;10921;53.614;9.882;2023-02-21T13:37:55;101390.19;;;12.89;73.79
21520;BME280;10921;53.614;9.882;2023-02-21T13:43:23;101412.56;;;13.08;72.90
21520;BME280;10921;53.614;9.882;2023-02-21T13:45:51;101401.28;;;13.04;71.79
21520;BME280;10921;53.614;9.882;2023-02-21T13:48:26;101400.59;;;13.12;71.39
21520;BME280;10921;53.614;9.882;2023-02-21T13:50:57;101396.63;;;13.06;70.78
21520;BME280;10921;53.614;9.882;2023-02-21T13:53:25;101403.69;;;13.07;69.87
21520;BME280;10921;53.614;9.882;2023-02-21T13:58:34;101400.06;;;12.98;70.69
21520;BME280;10921;53.614;9.882;2023-02-21T14:03:40;101391.91;;;12.81;70.90
21520;BME280;10921;53.614;9.882;2023-02-21T14:08:42;101401.75;;;12.80;72.08
21520;BME280;10921;53.614;9.882;2023-02-21T14:21:14;101411.75;;;12.59;72.30
21520;BME280;10921;53.614;9.882;2023-02-21T14:23:48;101395.97;;;12.56;72.92
21520;BME280;10921;53.614;9.882;2023-02-21T14:40:15;101386.25;;;12.26;75.43
21520;BME280;10921;53.614;9.882;2023-02-21T14:42:53;101394.28;;;12.36;75.74
21520;BME280;10921;53.614;9.882;2023-02-21T14:54:08;101390.78;;;12.35;74.47
21520;BME280;10921;53.614;9.882;2023-02-21T15:02:41;101370.88;;;12.09;75.70
21520;BME280;10921;53.614;9.882;2023-02-21T15:08:01;101388.59;;;12.10;76.24
21520;BME280;10921;53.614;9.882;2023-02-21T15:10:39;101404.13;;;12.16;76.23
21520;BME280;10921;53.614;9.882;2023-02-21T15:13:29;101397.59;;;11.99;76.55
21520;BME280;10921;53.614;9.882;2023-02-21T15:16:04;101396.19;;;11.95;76.75
21520;BME280;10921;53.614;9.882;2023-02-21T15:18:55;101412.94;;;11.97;76.27
21520;BME280;10921;53.614;9.882;2023-02-21T15:21:19;101413.50;;;11.91;76.55
21520;BME280;10921;53.614;9.882;2023-02-21T15:23:47;101383.28;;;11.70;76.90
21520;BME280;10921;53.614;9.882;2023-02-21T15:26:23;101415.16;;;11.82;77.92
21520;BME280;10921;53.614;9.882;2023-02-21T15:34:16;101412.56;;;11.71;78.73
21520;BME280;10921;53.614;9.882;2023-02-21T15:36:45;101378.97;;;11.48;77.89
21520;BME280;10921;53.614;9.882;2023-02-21T15:39:37;101405.78;;;11.67;78.29
21520;BME280;10921;53.614;9.882;2023-02-21T15:42:07;101395.59;;;11.51;77.42
21520;BME280;10921;53.614;9.882;2023-02-21T15:47:14;101427.69;;;11.61;77.44
21520;BME280;10921;53.614;9.882;2023-02-21T15:49:44;101419.50;;;11.53;77.46
21520;BME280;10921;53.614;9.882;2023-02-21T15:52:35;101410.19;;;11.47;78.56
21520;BME280;10921;53.614;9.882;2023-02-21T15:57:46;101410.53;;;11.33;77.89
21520;BME280;10921;53.614;9.882;2023-02-21T16:02:45;101420.91;;;11.26;78.44